createdAt,value
2018-07-14T00:00:25.599Z,50.20
2018-07-14T00:02:58.361Z,39.30
2018-07-14T00:05:31.167Z,30.20
2018-07-14T00:08:03.910Z,48.47
2018-07-14T00:10:36.503Z,49.17
2018-07-14T00:13:09.337Z,38.73
2018-07-14T00:15:42.385Z,37.77
2018-07-14T00:18:26.703Z,50.33
2018-07-14T00:20:59.333Z,46.92
2018-07-14T00:23:31.938Z,50.00
2018-07-14T00:26:04.868Z,39.70
2018-07-14T00:28:37.658Z,48.50
2018-07-14T00:31:10.433Z,48.63
2018-07-14T00:33:45.867Z,60.93
2018-07-14T00:36:18.586Z,49.08
2018-07-14T00:38:51.370Z,43.57
2018-07-14T00:41:24.147Z,44.67
2018-07-14T00:43:57.295Z,40.63
2018-07-14T00:46:30.375Z,32.80
2018-07-14T00:49:03.202Z,39.27
2018-07-14T00:51:35.749Z,37.43
2018-07-14T00:54:08.634Z,40.63
2018-07-14T00:56:41.275Z,58.30
2018-07-14T00:59:14.029Z,43.17
2018-07-14T01:01:47.176Z,40.20
2018-07-14T01:04:19.898Z,37.50
2018-07-14T01:07:06.694Z,36.97
2018-07-14T01:09:39.510Z,38.87
2018-07-14T01:12:12.419Z,35.23
2018-07-14T01:14:45.202Z,37.50
2018-07-14T01:17:17.933Z,30.33
2018-07-14T01:19:51.066Z,37.97
2018-07-14T01:22:23.893Z,38.20
2018-07-14T01:24:56.680Z,42.77
2018-07-14T01:27:29.618Z,36.87
2018-07-14T01:30:02.376Z,27.77
2018-07-14T01:32:35.156Z,33.17
2018-07-14T01:35:08.044Z,36.53
2018-07-14T01:37:39.914Z,36.40
2018-07-14T01:40:14.988Z,40.37
2018-07-14T01:42:48.670Z,31.40
2018-07-14T01:45:20.311Z,36.63
2018-07-14T01:47:57.148Z,38.50
2018-07-14T01:50:31.212Z,43.03
2018-07-14T01:53:07.740Z,41.15
2018-07-14T01:55:41.110Z,30.77
2018-07-14T01:58:14.332Z,37.97
2018-07-14T02:00:46.870Z,37.30
2018-07-14T02:03:19.656Z,38.97
2018-07-14T02:05:52.369Z,43.87
2018-07-14T02:08:25.594Z,38.80
2018-07-14T02:10:58.568Z,31.97
2018-07-14T02:13:31.332Z,34.77
2018-07-14T02:16:04.148Z,32.97
2018-07-14T02:18:37.135Z,40.37
2018-07-14T02:21:11.092Z,38.93
2018-07-14T02:23:43.998Z,43.13
2018-07-14T02:26:16.762Z,45.97
2018-07-14T02:28:49.608Z,39.93
2018-07-14T02:31:22.424Z,33.33
2018-07-14T02:33:55.184Z,43.85
2018-07-14T02:36:28.227Z,33.50
2018-07-14T02:39:00.949Z,35.60
2018-07-14T02:41:32.316Z,41.03
2018-07-14T02:44:05.524Z,42.03
2018-07-14T02:46:39.827Z,39.33
2018-07-14T02:49:12.557Z,40.47
2018-07-14T02:51:45.489Z,41.27
2018-07-14T02:54:18.876Z,33.20
2018-07-14T02:56:51.379Z,35.53
2018-07-14T02:59:28.626Z,33.27
2018-07-14T03:02:01.385Z,38.60
2018-07-14T03:04:33.958Z,38.27
2018-07-14T03:07:06.752Z,33.83
2018-07-14T03:09:39.701Z,31.13
2018-07-14T03:12:12.290Z,31.47
2018-07-14T03:14:44.837Z,38.83
2018-07-14T03:20:09.638Z,34.80
2018-07-14T03:22:41.977Z,32.90
2018-07-14T03:25:14.187Z,38.47
2018-07-14T03:27:47.398Z,31.10
2018-07-14T03:30:19.979Z,30.63
2018-07-14T03:32:52.219Z,35.07
2018-07-14T03:35:24.578Z,38.73
2018-07-14T03:37:57.291Z,34.80
2018-07-14T03:40:29.617Z,36.57
2018-07-14T03:43:01.888Z,38.47
2018-07-14T03:45:34.233Z,37.70
2018-07-14T03:48:06.586Z,32.37
2018-07-14T03:50:38.883Z,35.03
2018-07-14T03:53:11.166Z,32.87
2018-07-14T03:55:43.523Z,31.57
2018-07-14T03:58:15.732Z,38.83
2018-07-14T04:00:47.997Z,35.70
2018-07-14T04:03:20.148Z,30.20
2018-07-14T04:05:52.373Z,32.80
2018-07-14T04:08:25.261Z,33.07
2018-07-14T04:10:57.546Z,32.78
2018-07-14T04:13:29.925Z,29.97
2018-07-14T04:16:02.180Z,32.87
2018-07-14T04:18:34.494Z,32.47
2018-07-14T04:21:07.020Z,31.83
2018-07-14T04:23:39.414Z,32.63
2018-07-14T04:26:11.705Z,29.63
2018-07-14T04:28:44.907Z,28.63
2018-07-14T04:31:17.216Z,30.77
2018-07-14T04:33:49.338Z,28.60
2018-07-14T04:36:21.440Z,26.70
2018-07-14T04:38:53.651Z,21.40
2018-07-14T04:41:25.895Z,25.73
2018-07-14T04:43:58.340Z,20.13
2018-07-14T04:46:30.864Z,29.93
2018-07-14T04:49:03.376Z,23.00
2018-07-14T04:51:35.940Z,25.10
2018-07-14T04:54:08.297Z,33.13
2018-07-14T04:56:40.606Z,30.13
2018-07-14T04:59:12.853Z,31.40
2018-07-14T05:01:46.640Z,28.90
2018-07-14T05:04:18.940Z,29.50
2018-07-14T05:06:51.241Z,28.27
2018-07-14T05:09:23.408Z,34.50
2018-07-14T05:11:55.651Z,28.47
2018-07-14T05:14:28.122Z,33.57
2018-07-14T05:17:00.564Z,30.27
2018-07-14T05:19:33.128Z,23.40
2018-07-14T05:22:04.712Z,26.20
2018-07-14T05:24:37.659Z,34.55
2018-07-14T05:27:10.633Z,37.53
2018-07-14T05:29:43.527Z,35.33
2018-07-14T05:32:16.540Z,30.00
2018-07-14T05:34:49.452Z,36.93
2018-07-14T05:37:22.295Z,33.80
2018-07-14T05:39:55.226Z,29.73
2018-07-14T05:42:28.255Z,28.10
2018-07-14T05:45:01.305Z,30.33
2018-07-14T05:47:34.452Z,26.17
2018-07-14T05:50:07.520Z,25.40
2018-07-14T05:52:40.356Z,28.03
2018-07-14T05:55:13.057Z,31.87
2018-07-14T05:57:46.076Z,35.85
2018-07-14T06:00:18.839Z,27.77
2018-07-14T06:02:51.634Z,28.10
2018-07-14T06:05:24.416Z,23.77
2018-07-14T06:07:57.320Z,28.37
2018-07-14T06:10:30.180Z,27.63
2018-07-14T06:13:02.939Z,30.27
2018-07-14T06:15:35.706Z,29.50
2018-07-14T06:18:08.554Z,29.25
2018-07-14T06:20:40.949Z,32.67
2018-07-14T06:23:13.451Z,28.17
2018-07-14T06:25:45.678Z,26.87
2018-07-14T06:28:18.181Z,26.50
2018-07-14T06:30:50.511Z,27.93
2018-07-14T06:33:22.756Z,31.40
2018-07-14T06:35:54.894Z,27.47
2018-07-14T06:38:27.197Z,29.50
2018-07-14T06:40:59.980Z,34.90
2018-07-14T06:43:32.149Z,22.73
2018-07-14T06:46:04.477Z,26.87
2018-07-14T06:48:36.688Z,30.48
2018-07-14T06:51:08.865Z,30.00
2018-07-14T06:53:41.114Z,27.73
2018-07-14T06:56:13.805Z,28.80
2018-07-14T06:58:46.079Z,22.47
2018-07-14T07:01:18.260Z,22.07
2018-07-14T07:03:50.387Z,26.62
2018-07-14T07:06:22.583Z,21.63
2018-07-14T07:08:55.256Z,26.83
2018-07-14T07:11:27.613Z,26.70
2018-07-14T07:13:59.755Z,29.87
2018-07-14T07:16:32.266Z,28.13
2018-07-14T07:19:09.016Z,32.00
2018-07-14T07:21:41.254Z,26.30
2018-07-14T07:24:13.512Z,28.63
2018-07-14T07:26:45.742Z,27.37
2018-07-14T07:29:17.946Z,25.80
2018-07-14T07:31:50.220Z,22.40
2018-07-14T07:34:22.540Z,25.10
2018-07-14T07:36:54.838Z,25.30
2018-07-14T07:39:27.126Z,30.10
2018-07-14T07:41:59.292Z,26.33
2018-07-14T07:44:31.427Z,29.37
2018-07-14T07:47:03.736Z,22.93
2018-07-14T07:49:35.909Z,30.72
2018-07-14T07:52:08.270Z,31.30
2018-07-14T07:54:41.812Z,29.47
2018-07-14T07:57:14.111Z,25.67
2018-07-14T07:59:46.381Z,26.77
2018-07-14T08:02:18.746Z,28.17
2018-07-14T08:04:51.737Z,27.33
2018-07-14T08:07:24.593Z,33.77
2018-07-14T08:09:57.385Z,29.07
2018-07-14T08:12:30.150Z,34.77
2018-07-14T08:15:02.966Z,29.23
2018-07-14T08:17:35.173Z,24.30
2018-07-14T08:20:07.786Z,35.97
2018-07-14T08:22:39.989Z,36.98
2018-07-14T08:25:12.442Z,38.13
2018-07-14T08:27:43.385Z,34.33
2018-07-14T08:30:15.752Z,39.53
2018-07-14T08:32:48.095Z,30.43
2018-07-14T08:35:20.373Z,40.75
2018-07-14T08:37:52.578Z,32.27
2018-07-14T08:40:24.804Z,40.33
2018-07-14T08:42:57.028Z,43.58
2018-07-14T08:45:29.207Z,35.03
2018-07-14T08:48:01.368Z,38.25
2018-07-14T08:50:33.706Z,31.17
2018-07-14T08:53:05.793Z,29.53
2018-07-14T08:55:37.953Z,39.17
2018-07-14T08:58:10.168Z,34.17
2018-07-14T09:00:42.282Z,32.83
2018-07-14T09:03:14.437Z,31.43
2018-07-14T09:05:46.507Z,30.33
2018-07-14T09:08:18.700Z,34.93
2018-07-14T09:10:50.972Z,30.67
2018-07-14T09:13:24.265Z,34.83
2018-07-14T09:15:56.455Z,24.83
2018-07-14T09:18:29.633Z,30.90
2018-07-14T09:21:01.909Z,24.33
2018-07-14T09:23:34.279Z,32.97
2018-07-14T09:26:06.513Z,33.10
2018-07-14T09:28:39.063Z,34.30
2018-07-14T09:31:12.953Z,28.77
2018-07-14T09:33:45.702Z,30.97
2018-07-14T09:36:26.750Z,31.70
2018-07-14T09:38:58.793Z,29.90
2018-07-14T09:41:31.202Z,28.03
2018-07-14T09:44:03.616Z,30.90
2018-07-14T09:46:37.772Z,30.40
2018-07-14T09:49:10.271Z,29.03
2018-07-14T09:51:42.424Z,33.13
2018-07-14T09:54:15.310Z,32.40
2018-07-14T09:56:47.402Z,34.23
2018-07-14T09:59:24.306Z,29.47
2018-07-14T10:01:56.397Z,32.17
2018-07-14T10:04:28.507Z,32.77
2018-07-14T10:07:00.656Z,33.60
2018-07-14T10:09:32.723Z,30.93
2018-07-14T10:12:06.207Z,31.80
2018-07-14T10:14:38.525Z,34.55
2018-07-14T10:17:10.678Z,35.83
2018-07-14T10:19:42.787Z,36.77
2018-07-14T10:22:15.190Z,30.15
2018-07-14T10:24:47.576Z,28.77
2018-07-14T10:27:20.061Z,32.87
2018-07-14T10:29:52.289Z,33.28
2018-07-14T10:32:24.428Z,34.37
2018-07-14T10:34:56.776Z,34.75
2018-07-14T10:37:28.934Z,35.80
2018-07-14T10:40:01.497Z,38.73
2018-07-14T10:42:34.442Z,27.77
2018-07-14T10:45:07.561Z,43.37
2018-07-14T10:49:08.343Z,25.67
2018-07-14T10:51:40.487Z,37.85
2018-07-14T10:54:12.779Z,35.77
2018-07-14T10:56:46.070Z,30.87
2018-07-14T10:59:19.641Z,35.43
2018-07-14T11:01:55.706Z,42.40
2018-07-14T11:04:38.584Z,104.25
2018-07-14T11:07:22.467Z,42.53
2018-07-14T11:10:00.842Z,36.73
2018-07-14T11:14:10.979Z,43.48
2018-07-14T11:16:52.426Z,39.03
2018-07-14T11:19:27.874Z,35.60
2018-07-14T11:22:02.511Z,35.47
2018-07-14T11:24:34.780Z,41.00
2018-07-14T11:27:10.104Z,32.93
2018-07-14T11:29:42.379Z,34.87
2018-07-14T11:32:15.373Z,37.23
2018-07-14T11:34:47.679Z,52.60
2018-07-14T11:37:19.735Z,39.70
2018-07-14T11:39:51.890Z,39.63
2018-07-14T11:42:23.969Z,36.30
2018-07-14T11:44:56.209Z,42.33
2018-07-14T11:47:28.411Z,43.90
2018-07-14T11:50:00.983Z,70.23
2018-07-14T11:52:33.066Z,82.20
2018-07-14T11:55:05.286Z,99.90
2018-07-14T11:57:37.457Z,82.00
2018-07-14T12:00:09.643Z,76.83
2018-07-14T12:02:41.988Z,175.73
2018-07-14T12:05:14.036Z,189.80
2018-07-14T12:07:46.184Z,137.00
2018-07-14T12:10:18.250Z,81.47
2018-07-14T12:12:50.461Z,61.10
2018-07-14T12:15:22.661Z,44.37
2018-07-14T12:17:54.781Z,41.40
2018-07-14T12:20:26.946Z,43.13
2018-07-14T12:22:59.179Z,37.40
2018-07-14T12:28:19.948Z,46.03
2018-07-14T12:30:56.019Z,37.07
2018-07-14T12:33:30.380Z,27.77
2018-07-14T12:36:02.555Z,38.07
2018-07-14T12:38:34.675Z,35.33
2018-07-14T12:41:06.787Z,41.97
2018-07-14T12:43:38.966Z,39.97
2018-07-14T12:46:11.138Z,40.97
2018-07-14T12:48:42.094Z,38.97
2018-07-14T12:51:19.441Z,40.83
2018-07-14T12:53:51.876Z,35.40
2018-07-14T12:56:24.049Z,34.30
2018-07-14T12:58:56.266Z,38.23
2018-07-14T13:01:28.644Z,35.80
2018-07-14T13:04:03.025Z,38.97
2018-07-14T13:06:35.508Z,35.08
2018-07-14T13:09:18.494Z,32.93
2018-07-14T13:12:02.836Z,41.70
2018-07-14T13:14:51.497Z,30.50
2018-07-14T13:17:31.436Z,39.87
2018-07-14T13:20:15.142Z,35.43
2018-07-14T13:22:57.635Z,31.03
2018-07-14T13:25:36.646Z,34.37
2018-07-14T13:28:14.424Z,36.03
2018-07-14T13:31:01.564Z,32.60
2018-07-14T13:33:41.068Z,35.97
2018-07-14T13:36:24.057Z,32.50
2018-07-14T13:38:56.127Z,44.73
2018-07-14T13:41:28.417Z,42.10
2018-07-14T13:44:00.490Z,32.13
2018-07-14T13:46:32.750Z,40.92
2018-07-14T13:49:03.691Z,37.90
2018-07-14T13:51:36.014Z,49.33
2018-07-14T13:54:08.843Z,39.07
2018-07-14T13:56:41.114Z,44.40
2018-07-14T13:59:13.256Z,42.27
2018-07-14T14:01:45.470Z,45.53
2018-07-14T14:04:17.653Z,44.93
2018-07-14T14:06:50.061Z,28.97
2018-07-14T14:09:22.818Z,34.10
2018-07-14T14:11:55.284Z,33.77
2018-07-14T14:14:28.088Z,38.28
2018-07-14T14:17:00.319Z,43.07
2018-07-14T14:19:32.460Z,37.23
2018-07-14T14:22:04.683Z,35.13
2018-07-14T14:24:37.585Z,45.13
2018-07-14T14:27:10.778Z,34.03
2018-07-14T14:29:42.927Z,35.40
2018-07-14T14:32:15.061Z,34.23
2018-07-14T14:34:49.065Z,32.43
2018-07-14T14:37:22.160Z,40.15
2018-07-14T14:39:55.473Z,42.17
2018-07-14T14:42:30.180Z,31.43
2018-07-14T14:45:02.281Z,37.97
2018-07-14T14:47:34.775Z,38.03
2018-07-14T14:50:07.485Z,39.63
2018-07-14T14:52:42.785Z,29.27
2018-07-14T14:55:14.958Z,40.40
2018-07-14T14:57:47.154Z,31.60
2018-07-14T15:00:20.283Z,37.17
2018-07-14T15:02:52.421Z,33.20
2018-07-14T15:05:24.642Z,33.90
2018-07-14T15:07:56.877Z,28.80
2018-07-14T15:10:30.108Z,33.40
2018-07-14T15:13:02.404Z,38.30
2018-07-14T15:15:44.957Z,31.33
2018-07-14T15:18:21.444Z,38.87
2018-07-14T15:21:03.865Z,31.20
2018-07-14T15:23:36.300Z,34.33
2018-07-14T15:26:09.426Z,39.47
2018-07-14T15:28:41.632Z,40.63
2018-07-14T15:31:13.875Z,38.90
2018-07-14T15:33:46.051Z,39.78
2018-07-14T15:36:19.069Z,37.83
2018-07-14T15:38:51.638Z,40.20
2018-07-14T15:41:23.926Z,39.80
2018-07-14T15:43:56.054Z,36.63
2018-07-14T15:46:28.426Z,37.33
2018-07-14T15:49:00.831Z,40.78
2018-07-14T15:51:32.924Z,37.23
2018-07-14T15:54:05.067Z,41.25
2018-07-14T15:56:37.323Z,36.43
2018-07-14T15:59:09.498Z,37.10
2018-07-14T16:01:41.666Z,40.20
2018-07-14T16:04:13.772Z,36.90
2018-07-14T16:06:46.692Z,34.80
2018-07-14T16:09:19.098Z,34.50
2018-07-14T16:11:51.389Z,39.40
2018-07-14T16:14:23.541Z,32.65
2018-07-14T16:16:55.673Z,22.20
2018-07-14T16:19:27.866Z,38.47
2018-07-14T16:22:00.606Z,42.50
2018-07-14T16:24:32.787Z,34.77
2018-07-14T16:27:05.127Z,30.03
2018-07-14T16:29:45.771Z,38.03
2018-07-14T16:32:29.826Z,35.13
2018-07-14T16:35:15.302Z,53.13
2018-07-14T16:38:02.085Z,67.87
2018-07-14T16:40:46.819Z,45.23
2018-07-14T16:43:32.098Z,49.83
2018-07-14T16:46:17.531Z,39.00
2018-07-14T16:49:03.530Z,38.30
2018-07-14T16:51:48.901Z,39.57
2018-07-14T16:54:36.912Z,34.57
2018-07-14T16:57:25.415Z,39.10
2018-07-14T17:00:09.328Z,43.05
2018-07-14T17:03:05.943Z,38.70
2018-07-14T17:05:49.759Z,34.50
2018-07-14T17:08:49.824Z,49.40
2018-07-14T17:11:30.450Z,30.17
2018-07-14T17:14:17.947Z,44.60
2018-07-14T17:17:04.035Z,37.70
2018-07-14T17:19:49.698Z,43.67
2018-07-14T17:22:35.052Z,34.53
2018-07-14T17:25:26.829Z,37.33
2018-07-14T17:28:14.627Z,39.00
2018-07-14T17:33:45.614Z,45.28
2018-07-14T17:36:31.192Z,38.70
2018-07-14T17:39:14.806Z,33.20
2018-07-14T17:41:56.815Z,29.73
2018-07-14T17:44:42.032Z,37.70
2018-07-14T17:47:26.358Z,36.23
2018-07-14T17:50:12.102Z,44.33
2018-07-14T17:52:56.522Z,39.67
2018-07-14T17:55:38.123Z,25.15
2018-07-14T17:58:15.864Z,33.83
2018-07-14T18:01:04.556Z,33.40
2018-07-14T18:03:52.852Z,32.43
2018-07-14T18:06:33.454Z,29.72
2018-07-14T18:09:16.295Z,40.20
2018-07-14T18:12:00.654Z,36.80
2018-07-14T18:14:42.410Z,37.13
2018-07-14T18:17:28.162Z,41.58
2018-07-14T18:20:10.596Z,38.80
2018-07-14T18:22:42.854Z,26.95
2018-07-14T18:25:15.134Z,36.28
2018-07-14T18:27:47.301Z,37.15
2018-07-14T18:30:19.416Z,28.63
2018-07-14T18:32:51.665Z,36.03
2018-07-14T18:35:23.825Z,26.70
2018-07-14T18:37:56.262Z,34.00
2018-07-14T18:40:28.446Z,29.60
2018-07-14T18:43:00.718Z,34.65
2018-07-14T18:45:33.241Z,34.90
2018-07-14T18:48:05.601Z,37.57
2018-07-14T18:50:40.964Z,37.65
2018-07-14T18:53:11.940Z,27.33
2018-07-14T18:55:44.181Z,27.32
2018-07-14T18:58:16.665Z,36.10
2018-07-14T19:00:48.753Z,37.60
2018-07-14T19:03:20.885Z,40.30
2018-07-14T19:05:52.110Z,27.97
2018-07-14T19:08:25.158Z,27.30
2018-07-14T19:10:57.444Z,44.70
2018-07-14T19:13:30.346Z,31.27
2018-07-14T19:16:07.090Z,19.50
2018-07-14T19:18:39.183Z,20.20
2018-07-14T19:21:11.399Z,28.33
2018-07-14T19:23:43.595Z,42.43
2018-07-14T19:26:15.968Z,38.10
2018-07-14T19:28:48.085Z,28.40
2018-07-14T19:31:20.152Z,33.50
2018-07-14T19:33:52.262Z,28.77
2018-07-14T19:36:24.767Z,34.27
2018-07-14T19:38:56.877Z,36.40
2018-07-14T19:41:28.987Z,45.83
2018-07-14T19:44:01.120Z,34.30
2018-07-14T19:46:33.397Z,27.57
2018-07-14T19:49:05.617Z,33.30
2018-07-14T19:51:37.790Z,35.33
2018-07-14T19:54:09.888Z,31.07
2018-07-14T19:56:41.994Z,27.63
2018-07-14T19:59:14.150Z,30.83
2018-07-14T20:01:46.314Z,35.60
2018-07-14T20:04:18.503Z,42.35
2018-07-14T20:06:50.608Z,40.57
2018-07-14T20:09:23.010Z,42.23
2018-07-14T20:11:53.931Z,46.73
2018-07-14T20:14:25.938Z,29.97
2018-07-14T20:16:58.094Z,27.27
2018-07-14T20:19:30.858Z,35.87
2018-07-14T20:22:03.049Z,29.80
2018-07-14T20:24:35.294Z,29.30
2018-07-14T20:27:07.992Z,31.07
2018-07-14T20:29:40.163Z,34.00
2018-07-14T20:32:12.389Z,43.58
2018-07-14T20:34:44.517Z,31.43
2018-07-14T20:37:16.704Z,39.17
2018-07-14T20:39:48.817Z,35.67
2018-07-14T20:42:21.051Z,39.13
2018-07-14T20:44:53.261Z,42.53
2018-07-14T20:47:25.453Z,43.10
2018-07-14T20:49:57.626Z,29.17
2018-07-14T20:52:30.039Z,37.63
2018-07-14T20:55:02.116Z,30.43
2018-07-14T20:57:34.163Z,27.30
2018-07-14T21:00:06.600Z,28.37
2018-07-14T21:02:38.763Z,40.33
2018-07-14T21:05:10.953Z,51.57
2018-07-14T21:07:43.109Z,30.10
2018-07-14T21:10:15.254Z,35.30
2018-07-14T21:12:47.377Z,42.53
2018-07-14T21:15:19.515Z,34.50
2018-07-14T21:17:51.513Z,38.23
2018-07-14T21:20:23.711Z,37.97
2018-07-14T21:22:55.794Z,38.92
2018-07-14T21:25:28.035Z,47.20
2018-07-14T21:28:00.126Z,39.27
2018-07-14T21:30:32.242Z,35.47
2018-07-14T21:33:04.331Z,42.23
2018-07-14T21:35:36.436Z,34.97
2018-07-14T21:38:09.986Z,40.53
2018-07-14T21:40:42.075Z,39.33
2018-07-14T21:43:14.199Z,33.13
2018-07-14T21:45:46.435Z,38.53
2018-07-14T21:48:18.577Z,36.55
2018-07-14T21:50:50.664Z,40.87
2018-07-14T21:53:23.370Z,31.37
2018-07-14T21:55:55.383Z,44.90
2018-07-14T21:58:27.516Z,34.13
2018-07-14T22:01:08.547Z,41.30
2018-07-14T22:03:40.629Z,37.20
2018-07-14T22:06:12.839Z,42.13
2018-07-14T22:08:44.999Z,37.97
2018-07-14T22:11:17.305Z,37.83
2018-07-14T22:13:49.416Z,41.50
2018-07-14T22:16:21.547Z,34.18
2018-07-14T22:18:53.610Z,35.90
2018-07-14T22:21:25.721Z,34.63
2018-07-14T22:23:57.884Z,36.37
2018-07-14T22:26:30.057Z,26.60
2018-07-14T22:29:02.114Z,39.77
2018-07-14T22:31:34.331Z,45.23
2018-07-14T22:34:06.384Z,33.67
2018-07-14T22:36:38.576Z,44.30
2018-07-14T22:39:10.748Z,38.67
2018-07-14T22:41:46.100Z,46.30
2018-07-14T22:44:18.594Z,43.23
2018-07-14T22:46:50.748Z,35.13
2018-07-14T22:49:22.805Z,35.83
2018-07-14T22:51:54.872Z,43.27
2018-07-14T22:54:26.929Z,43.17
2018-07-14T22:56:58.995Z,37.40
2018-07-14T22:59:31.129Z,40.35
2018-07-14T23:02:03.240Z,33.73
2018-07-14T23:04:35.330Z,43.57
2018-07-14T23:07:07.699Z,47.40
2018-07-14T23:09:40.064Z,31.90
2018-07-14T23:12:12.250Z,36.40
2018-07-14T23:14:44.468Z,37.13
2018-07-14T23:17:16.552Z,35.17
2018-07-14T23:19:48.734Z,34.63
2018-07-14T23:22:20.790Z,29.50
2018-07-14T23:24:53.126Z,30.13
2018-07-14T23:27:25.808Z,31.67
2018-07-14T23:29:57.856Z,32.83
2018-07-14T23:32:30.010Z,26.63
2018-07-14T23:35:02.246Z,41.53
2018-07-14T23:37:34.307Z,29.87
2018-07-14T23:40:06.518Z,43.27
2018-07-14T23:42:38.672Z,36.50
2018-07-14T23:45:10.857Z,27.23
2018-07-14T23:47:43.231Z,36.07
2018-07-14T23:50:22.122Z,32.23
2018-07-14T23:52:55.076Z,26.83
2018-07-14T23:55:29.944Z,35.23
2018-07-14T23:58:02.206Z,31.77
